Time;durP1;ratioP1;P1;durP2;ratioP2;P2;SDS_P1;SDS_P2;PMS_P1;PMS_P2;Temp;Humidity;BMP_temperature;BMP_pressure;BME280_temperature;BME280_humidity;BME280_pressure;Samples;Min_cycle;Max_cycle;Signal;HPM_P1;HPM_P2
2023/09/16 00:00:42;;;;;;;18.38;11.55;;;13.70;94.30;;;;;;5050875;28;20051;-76
2023/09/16 00:03:07;;;;;;;17.85;12.20;;;13.70;94.30;;;;;;5052638;28;20054;-75
2023/09/16 00:05:34;;;;;;;14.13;11.40;;;13.70;94.30;;;;;;5034192;28;20170;-76
2023/09/16 00:08:00;;;;;;;16.05;11.30;;;13.80;94.40;;;;;;5049335;28;20567;-76
2023/09/16 00:10:25;;;;;;;13.48;10.70;;;13.70;94.40;;;;;;5051295;28;20049;-76
2023/09/16 00:12:51;;;;;;;14.40;11.27;;;13.70;94.40;;;;;;5047740;28;20092;-76
2023/09/16 00:15:17;;;;;;;14.35;11.32;;;13.70;94.50;;;;;;5025652;28;20040;-76
2023/09/16 00:17:43;;;;;;;15.80;10.75;;;13.70;94.50;;;;;;5067437;28;20069;-76
2023/09/16 00:20:14;;;;;;;14.55;10.68;;;13.60;94.50;;;;;;5048878;28;20072;-76
2023/09/16 00:22:44;;;;;;;12.15;10.82;;;13.60;94.50;;;;;;5058440;28;20056;-76
2023/09/16 00:25:11;;;;;;;14.75;12.02;;;13.60;94.60;;;;;;5055527;28;20083;-76
2023/09/16 00:27:39;;;;;;;17.83;13.00;;;13.60;94.60;;;;;;5010790;28;20047;-76
2023/09/16 00:30:05;;;;;;;13.38;10.32;;;13.50;94.70;;;;;;5066641;28;20101;-76
2023/09/16 00:32:32;;;;;;;15.45;12.02;;;13.50;94.90;;;;;;5030703;28;20060;-76
2023/09/16 00:35:05;;;;;;;14.73;11.90;;;13.50;94.90;;;;;;5066487;28;20266;-76
2023/09/16 00:37:31;;;;;;;14.45;12.45;;;13.40;95.00;;;;;;5029753;28;20041;-76
2023/09/16 00:39:57;;;;;;;14.45;11.68;;;13.40;95.10;;;;;;5050562;28;20045;-76
2023/09/16 00:42:23;;;;;;;12.48;11.05;;;13.40;95.20;;;;;;5034830;28;20040;-76
2023/09/16 00:44:49;;;;;;;16.38;12.20;;;13.40;95.20;;;;;;5032199;28;20486;-76
2023/09/16 00:47:16;;;;;;;15.65;11.65;;;13.40;95.20;;;;;;5049121;28;20048;-76
2023/09/16 00:49:42;;;;;;;13.30;11.70;;;13.50;95.20;;;;;;5045498;28;20399;-76
2023/09/16 00:52:10;;;;;;;14.38;10.98;;;13.40;95.30;;;;;;5060929;28;20044;-76
2023/09/16 00:54:37;;;;;;;13.23;11.02;;;13.40;95.30;;;;;;5049771;28;20913;-76
2023/09/16 00:57:08;;;;;;;13.65;10.70;;;13.40;95.40;;;;;;5043953;28;20056;-76
2023/09/16 00:59:35;;;;;;;13.77;12.30;;;13.40;95.50;;;;;;5044655;28;20507;-76
2023/09/16 01:02:01;;;;;;;12.90;11.15;;;13.30;95.50;;;;;;5007725;28;20097;-76
2023/09/16 01:04:27;;;;;;;12.45;10.77;;;13.30;95.60;;;;;;5042608;28;20048;-76
2023/09/16 01:06:53;;;;;;;14.20;11.05;;;13.30;95.60;;;;;;5032717;28;20195;-76
2023/09/16 01:09:20;;;;;;;16.05;11.75;;;13.30;95.60;;;;;;5050599;28;20036;-76
2023/09/16 01:11:47;;;;;;;12.40;11.10;;;13.30;95.60;;;;;;5014706;28;20053;-76
2023/09/16 01:14:14;;;;;;;13.88;11.50;;;13.30;95.60;;;;;;5032106;28;20408;-76
2023/09/16 01:16:51;;;;;;;14.48;12.85;;;13.30;95.60;;;;;;5041595;28;20040;-75
2023/09/16 01:19:19;;;;;;;14.48;12.85;;;13.30;95.70;;;;;;5066444;28;20052;-76
2023/09/16 01:21:48;;;;;;;14.95;11.35;;;13.30;95.80;;;;;;5049269;28;20051;-76
2023/09/16 01:24:23;;;;;;;16.13;12.80;;;13.30;95.80;;;;;;5049845;28;20048;-76
2023/09/16 01:26:49;;;;;;;14.25;11.48;;;13.30;95.90;;;;;;5035433;28;20063;-76
2023/09/16 01:29:16;;;;;;;15.75;11.55;;;13.30;95.80;;;;;;5066548;28;20499;-76
2023/09/16 01:31:44;;;;;;;13.73;11.65;;;13.30;95.90;;;;;;5025096;28;20088;-76
2023/09/16 01:34:32;;;;;;;14.48;11.55;;;13.30;95.90;;;;;;5033283;28;20104;-75
2023/09/16 01:36:59;;;;;;;13.02;10.77;;;13.30;96.00;;;;;;5054506;28;20063;-76
2023/09/16 01:39:29;;;;;;;13.95;11.50;;;13.30;95.90;;;;;;5048888;28;20073;-76
2023/09/16 01:41:56;;;;;;;13.65;11.98;;;13.20;95.90;;;;;;5030916;28;20051;-76
2023/09/16 01:44:24;;;;;;;17.98;12.70;;;13.20;95.90;;;;;;5034149;28;20044;-76
2023/09/16 01:46:53;;;;;;;14.57;12.30;;;13.20;96.00;;;;;;5054856;28;20047;-76
2023/09/16 01:49:19;;;;;;;14.77;11.23;;;13.20;96.10;;;;;;5057928;28;20040;-77
2023/09/16 01:51:45;;;;;;;15.05;12.35;;;13.20;96.10;;;;;;5040606;28;20055;-76
2023/09/16 01:54:10;;;;;;;15.15;11.50;;;13.10;96.20;;;;;;5044919;28;20043;-76
2023/09/16 01:56:36;;;;;;;14.52;12.75;;;13.10;96.30;;;;;;5017466;28;20045;-75
2023/09/16 01:59:03;;;;;;;14.10;12.45;;;13.10;96.30;;;;;;5031326;28;20246;-75
2023/09/16 02:01:30;;;;;;;13.60;11.80;;;13.10;96.40;;;;;;5039417;28;20051;-76
2023/09/16 02:03:56;;;;;;;15.77;12.55;;;13.00;96.50;;;;;;5044844;28;20044;-76
2023/09/16 02:06:23;;;;;;;16.33;12.13;;;13.10;96.60;;;;;;5042137;28;20070;-76
2023/09/16 02:08:49;;;;;;;15.40;12.82;;;13.00;96.60;;;;;;5016425;28;20080;-76
2023/09/16 02:11:15;;;;;;;12.88;11.13;;;13.00;96.70;;;;;;5040713;28;20143;-76
2023/09/16 02:13:41;;;;;;;15.85;11.73;;;13.00;96.70;;;;;;5066441;28;20086;-75
2023/09/16 02:16:09;;;;;;;14.23;11.75;;;13.00;96.70;;;;;;5047033;28;20438;-76
2023/09/16 02:18:35;;;;;;;13.82;11.10;;;13.00;96.70;;;;;;5033585;28;20059;-76
2023/09/16 02:21:00;;;;;;;12.68;10.60;;;12.90;96.70;;;;;;5029577;28;20791;-76
2023/09/16 02:23:27;;;;;;;13.18;10.95;;;12.90;96.70;;;;;;5047104;28;20447;-75
2023/09/16 02:25:53;;;;;;;11.57;10.38;;;12.90;96.70;;;;;;5009721;28;20136;-77
2023/09/16 02:28:22;;;;;;;15.38;11.50;;;12.90;96.70;;;;;;5044247;28;20095;-76
2023/09/16 02:30:48;;;;;;;15.98;11.70;;;12.90;96.70;;;;;;5029904;28;20462;-76
2023/09/16 02:33:14;;;;;;;13.60;11.13;;;12.90;96.70;;;;;;5036164;28;20184;-76
2023/09/16 02:35:40;;;;;;;15.57;11.73;;;13.00;96.70;;;;;;5065204;28;20139;-75
2023/09/16 02:38:06;;;;;;;11.85;9.75;;;12.90;96.70;;;;;;5051412;28;20123;-75
2023/09/16 02:40:31;;;;;;;16.58;12.65;;;12.90;96.60;;;;;;5053393;28;20051;-75
2023/09/16 02:42:57;;;;;;;14.45;11.95;;;12.90;96.60;;;;;;5032092;28;20051;-75
2023/09/16 02:45:23;;;;;;;15.40;12.63;;;12.90;96.70;;;;;;5024040;28;20089;-76
2023/09/16 02:47:49;;;;;;;13.02;11.45;;;12.90;96.70;;;;;;5027293;28;20074;-76
2023/09/16 02:50:15;;;;;;;13.77;12.23;;;12.90;96.80;;;;;;5035689;28;20427;-77
2023/09/16 02:52:41;;;;;;;15.75;12.18;;;12.90;96.90;;;;;;5008694;28;20517;-77
2023/09/16 02:55:07;;;;;;;13.35;10.93;;;12.90;97.00;;;;;;5054203;28;20052;-76
2023/09/16 02:57:32;;;;;;;12.63;11.27;;;12.80;97.00;;;;;;5052436;28;20070;-76
2023/09/16 02:59:59;;;;;;;14.20;10.80;;;12.80;97.00;;;;;;5014220;28;20044;-76
2023/09/16 03:02:25;;;;;;;14.52;12.05;;;12.80;97.00;;;;;;5015263;28;20052;-76
2023/09/16 03:04:51;;;;;;;14.68;11.90;;;12.80;97.00;;;;;;5064833;28;20048;-76
2023/09/16 03:07:16;;;;;;;14.98;12.30;;;12.70;97.10;;;;;;5049204;28;20066;-76
2023/09/16 03:09:42;;;;;;;14.95;12.20;;;12.80;97.10;;;;;;5044780;28;20091;-77
2023/09/16 03:12:08;;;;;;;15.25;11.25;;;12.70;97.20;;;;;;5044923;28;20032;-77
2023/09/16 03:14:33;;;;;;;14.82;12.88;;;12.70;97.20;;;;;;5013570;28;20051;-76
2023/09/16 03:16:59;;;;;;;14.45;11.60;;;12.70;97.30;;;;;;5051522;28;20503;-76
2023/09/16 03:19:28;;;;;;;14.05;12.20;;;12.70;97.30;;;;;;5024232;28;20068;-76
2023/09/16 03:21:54;;;;;;;16.02;12.25;;;12.60;97.30;;;;;;5045925;28;20049;-76
2023/09/16 03:24:20;;;;;;;15.45;12.20;;;12.60;97.30;;;;;;5021189;28;20049;-76
2023/09/16 03:26:46;;;;;;;14.15;11.68;;;12.60;97.30;;;;;;5021079;28;20048;-76
2023/09/16 03:29:12;;;;;;;18.20;12.38;;;12.60;97.40;;;;;;5029803;28;20033;-76
2023/09/16 03:31:37;;;;;;;16.77;13.02;;;12.50;97.40;;;;;;5031918;28;20051;-76
2023/09/16 03:34:03;;;;;;;15.43;12.80;;;12.50;97.40;;;;;;5049479;28;20486;-76
2023/09/16 03:36:29;;;;;;;17.45;12.55;;;12.50;97.50;;;;;;5062989;28;20090;-76
2023/09/16 03:38:56;;;;;;;14.32;12.82;;;12.50;97.50;;;;;;5028645;28;20056;-75
2023/09/16 03:41:22;;;;;;;17.55;13.35;;;12.50;97.60;;;;;;5049165;28;20128;-76
2023/09/16 03:43:48;;;;;;;17.90;12.63;;;12.40;97.60;;;;;;5008699;28;20052;-76
2023/09/16 03:46:14;;;;;;;16.50;13.20;;;12.50;97.70;;;;;;5043916;28;20469;-75
2023/09/16 03:48:40;;;;;;;16.13;13.48;;;12.40;97.70;;;;;;5002535;28;20055;-76
2023/09/16 03:51:07;;;;;;;16.50;13.73;;;12.40;97.80;;;;;;5062626;28;20056;-76
2023/09/16 03:53:34;;;;;;;16.75;13.63;;;12.30;97.90;;;;;;5020897;28;20043;-76
2023/09/16 03:56:05;;;;;;;16.98;13.40;;;12.30;97.90;;;;;;5046596;28;20053;-76
2023/09/16 03:58:33;;;;;;;17.70;13.57;;;12.30;98.00;;;;;;5025439;28;20511;-74
2023/09/16 04:00:59;;;;;;;15.48;13.80;;;12.30;98.10;;;;;;5045131;28;21078;-76
2023/09/16 04:03:24;;;;;;;15.90;13.00;;;12.20;98.10;;;;;;5043301;28;20125;-75
2023/09/16 04:05:54;;;;;;;17.23;13.63;;;12.20;98.10;;;;;;5027956;28;20195;-76
2023/09/16 04:08:20;;;;;;;15.60;13.20;;;12.20;98.20;;;;;;5017623;28;20044;-76
2023/09/16 04:10:46;;;;;;;14.38;12.80;;;12.20;98.30;;;;;;5010496;28;20064;-76
2023/09/16 04:13:13;;;;;;;16.08;13.30;;;12.20;98.30;;;;;;5066351;28;20458;-76
2023/09/16 04:15:38;;;;;;;17.80;14.52;;;12.20;98.40;;;;;;5034997;28;20233;-76
2023/09/16 04:18:04;;;;;;;20.88;15.27;;;12.20;98.40;;;;;;5032165;28;20456;-76
2023/09/16 04:20:30;;;;;;;18.70;14.57;;;12.20;98.50;;;;;;5070099;28;20051;-76
2023/09/16 04:22:56;;;;;;;17.05;14.20;;;12.20;98.50;;;;;;5035241;28;20104;-76
2023/09/16 04:25:22;;;;;;;17.08;14.30;;;12.20;98.50;;;;;;5033766;28;20102;-76
2023/09/16 04:27:48;;;;;;;18.13;15.18;;;12.20;98.60;;;;;;5033779;28;20055;-76
2023/09/16 04:30:15;;;;;;;18.48;14.32;;;12.20;98.60;;;;;;5006486;28;20055;-76
2023/09/16 04:32:47;;;;;;;16.10;14.30;;;12.10;98.70;;;;;;5066709;28;20049;-76
2023/09/16 04:35:12;;;;;;;16.70;13.73;;;12.10;98.70;;;;;;5026042;28;20052;-76
2023/09/16 04:37:38;;;;;;;19.80;14.20;;;12.10;98.80;;;;;;5029772;28;20310;-76
2023/09/16 04:40:11;;;;;;;16.70;14.38;;;12.10;98.80;;;;;;5048443;28;20402;-76
2023/09/16 04:42:37;;;;;;;15.70;13.70;;;12.10;98.90;;;;;;5012333;28;20045;-76
2023/09/16 04:45:05;;;;;;;18.77;15.27;;;12.10;98.80;;;;;;5048005;28;20055;-76
2023/09/16 04:47:31;;;;;;;16.05;13.77;;;12.10;98.80;;;;;;5051320;28;20156;-76
2023/09/16 04:49:57;;;;;;;19.75;14.80;;;12.10;98.90;;;;;;5033376;28;20483;-76
2023/09/16 04:52:30;;;;;;;18.98;13.90;;;12.10;98.90;;;;;;5052274;28;20122;-76
2023/09/16 04:54:56;;;;;;;17.92;14.50;;;12.10;98.90;;;;;;5048868;28;20076;-76
2023/09/16 04:57:21;;;;;;;18.60;14.30;;;12.10;98.90;;;;;;5058196;28;20153;-76
2023/09/16 04:59:48;;;;;;;24.30;17.35;;;12.10;98.90;;;;;;5012310;28;20060;-76
2023/09/16 05:02:14;;;;;;;19.23;15.18;;;12.10;98.90;;;;;;5062161;28;20052;-76
2023/09/16 05:04:40;;;;;;;19.38;16.30;;;12.10;99.00;;;;;;5044217;28;20052;-76
2023/09/16 05:07:06;;;;;;;19.15;16.17;;;12.20;99.00;;;;;;5020003;28;20093;-76
2023/09/16 05:09:32;;;;;;;16.60;14.80;;;12.20;99.10;;;;;;5045798;28;20085;-76
2023/09/16 05:11:58;;;;;;;20.02;16.00;;;12.20;99.40;;;;;;5023247;28;20049;-76
2023/09/16 05:14:24;;;;;;;20.02;17.17;;;12.20;99.20;;;;;;5045845;28;20049;-76
2023/09/16 05:16:50;;;;;;;17.38;15.13;;;12.30;99.30;;;;;;5048517;28;20506;-76
2023/09/16 05:19:16;;;;;;;20.13;16.42;;;12.30;99.30;;;;;;5024108;28;20055;-76
2023/09/16 05:21:42;;;;;;;20.58;16.55;;;12.30;99.40;;;;;;5018156;28;20055;-76
2023/09/16 05:24:08;;;;;;;20.75;17.48;;;12.30;99.50;;;;;;5067721;28;20040;-76
2023/09/16 05:26:34;;;;;;;20.00;16.05;;;12.30;99.60;;;;;;5036367;28;20052;-76
2023/09/16 05:29:00;;;;;;;18.95;16.13;;;12.30;99.70;;;;;;5035733;28;20047;-76
2023/09/16 05:31:26;;;;;;;19.65;15.70;;;12.30;99.70;;;;;;5033779;28;20055;-76
2023/09/16 05:33:52;;;;;;;20.05;17.35;;;12.30;99.80;;;;;;5047982;28;20044;-76
2023/09/16 05:36:20;;;;;;;17.70;15.77;;;12.30;99.90;;;;;;5052302;28;20114;-76
2023/09/16 05:38:46;;;;;;;18.10;15.73;;;12.30;99.90;;;;;;5037448;28;20048;-76
2023/09/16 05:41:11;;;;;;;17.90;15.07;;;12.30;99.90;;;;;;5051971;28;20045;-76
2023/09/16 05:43:37;;;;;;;18.42;15.63;;;12.30;99.90;;;;;;5047450;28;20399;-76
2023/09/16 05:46:05;;;;;;;18.45;16.38;;;12.30;99.90;;;;;;5063358;28;20068;-76
2023/09/16 05:48:31;;;;;;;17.45;14.93;;;12.30;99.90;;;;;;5048531;28;20085;-76
2023/09/16 05:50:58;;;;;;;20.58;17.23;;;12.30;99.90;;;;;;5017040;28;20052;-76
2023/09/16 05:53:25;;;;;;;18.65;16.42;;;12.30;99.90;;;;;;5050730;28;20044;-76
2023/09/16 05:55:51;;;;;;;17.40;14.60;;;12.30;99.90;;;;;;5052126;28;20075;-75
2023/09/16 05:58:17;;;;;;;22.50;17.08;;;12.30;99.90;;;;;;5049621;28;20126;-75
2023/09/16 06:00:43;;;;;;;17.17;15.45;;;12.30;99.90;;;;;;5052612;28;20124;-75
2023/09/16 06:03:09;;;;;;;16.92;13.73;;;12.30;99.90;;;;;;5006919;28;20614;-75
2023/09/16 06:05:35;;;;;;;18.42;15.52;;;12.40;99.90;;;;;;5008940;28;20098;-75
2023/09/16 06:08:01;;;;;;;16.67;14.82;;;12.40;99.90;;;;;;5049884;28;20501;-75
2023/09/16 06:10:27;;;;;;;18.17;15.25;;;12.40;99.90;;;;;;5047837;28;20438;-75
2023/09/16 06:12:53;;;;;;;19.73;15.95;;;12.40;99.90;;;;;;5029586;28;20051;-74
2023/09/16 06:15:19;;;;;;;18.67;16.38;;;12.50;99.90;;;;;;5007238;28;20044;-75
2023/09/16 06:17:45;;;;;;;20.00;17.08;;;12.50;99.90;;;;;;5065493;28;20075;-75
2023/09/16 06:20:11;;;;;;;19.50;17.38;;;12.60;99.90;;;;;;5047108;28;20502;-74
2023/09/16 06:22:36;;;;;;;19.88;17.58;;;12.60;99.90;;;;;;5021318;28;20118;-75
2023/09/16 06:25:02;;;;;;;23.60;18.33;;;12.60;99.90;;;;;;5011631;28;20151;-75
2023/09/16 06:27:28;;;;;;;22.50;18.27;;;12.60;99.90;;;;;;5028835;28;20056;-76
2023/09/16 06:29:54;;;;;;;21.23;17.40;;;12.70;99.90;;;;;;5053216;28;20067;-76
2023/09/16 06:32:21;;;;;;;22.48;18.23;;;12.70;99.90;;;;;;5023062;28;20068;-76
2023/09/16 06:34:48;;;;;;;19.15;17.02;;;12.70;99.90;;;;;;5039017;28;20048;-76
2023/09/16 06:37:14;;;;;;;19.67;17.02;;;12.80;99.90;;;;;;5030422;28;20040;-75
2023/09/16 06:39:40;;;;;;;20.98;16.63;;;12.80;99.90;;;;;;5064359;28;20062;-76
2023/09/16 06:42:05;;;;;;;19.45;17.00;;;12.90;99.90;;;;;;5046782;28;20048;-76
2023/09/16 06:44:31;;;;;;;20.70;15.98;;;12.90;99.90;;;;;;5046194;28;20047;-76
2023/09/16 06:46:57;;;;;;;19.08;16.45;;;13.00;99.90;;;;;;5046911;28;20048;-76
2023/09/16 06:49:23;;;;;;;20.63;17.67;;;13.00;99.90;;;;;;5048767;28;20051;-76
2023/09/16 06:51:48;;;;;;;17.80;14.82;;;13.10;99.90;;;;;;5048345;28;20052;-76
2023/09/16 06:54:16;;;;;;;20.08;16.40;;;13.10;99.90;;;;;;5048252;28;20129;-76
2023/09/16 06:56:42;;;;;;;21.02;17.88;;;13.20;99.90;;;;;;5034963;28;20133;-76
2023/09/16 06:59:07;;;;;;;19.35;17.02;;;13.30;99.90;;;;;;5053434;28;20494;-75
2023/09/16 07:01:34;;;;;;;19.08;15.70;;;13.40;99.90;;;;;;5034532;28;20044;-76
2023/09/16 07:04:00;;;;;;;20.23;16.88;;;13.40;99.90;;;;;;5027065;28;20049;-76
2023/09/16 07:06:26;;;;;;;22.83;19.58;;;13.50;99.90;;;;;;5027510;28;20044;-76
2023/09/16 07:08:52;;;;;;;20.65;17.70;;;13.70;99.90;;;;;;5052202;28;20044;-76
2023/09/16 07:11:18;;;;;;;22.40;18.50;;;13.70;99.90;;;;;;5034587;28;20044;-76
2023/09/16 07:13:44;;;;;;;22.20;18.30;;;13.90;99.90;;;;;;5035426;28;20123;-76
2023/09/16 07:16:12;;;;;;;26.65;20.92;;;14.00;99.90;;;;;;5043048;28;20777;-76
2023/09/16 07:18:38;;;;;;;27.08;20.98;;;14.10;99.90;;;;;;5039718;28;20083;-76
2023/09/16 07:21:06;;;;;;;30.35;23.38;;;14.30;99.90;;;;;;5046964;28;20028;-76
2023/09/16 07:23:32;;;;;;;24.60;19.73;;;14.50;99.90;;;;;;5046543;28;20045;-75
2023/09/16 07:25:59;;;;;;;27.15;22.35;;;14.70;99.90;;;;;;5045542;28;20364;-75
2023/09/16 07:28:26;;;;;;;26.35;22.17;;;14.80;99.90;;;;;;5050562;28;20040;-77
2023/09/16 07:30:57;;;;;;;24.58;19.25;;;15.10;99.90;;;;;;5030627;28;20044;-76
2023/09/16 07:33:23;;;;;;;21.80;18.77;;;15.20;99.90;;;;;;5023261;28;20047;-76
2023/09/16 07:35:51;;;;;;;25.05;21.63;;;15.40;99.90;;;;;;5047622;28;20056;-77
2023/09/16 07:38:17;;;;;;;27.25;21.85;;;15.60;99.90;;;;;;5054201;28;20139;-76
2023/09/16 07:40:46;;;;;;;19.73;17.63;;;15.80;99.90;;;;;;5048909;28;20582;-75
2023/09/16 07:43:12;;;;;;;22.33;18.95;;;16.00;99.90;;;;;;5051286;28;20091;-77
2023/09/16 07:45:41;;;;;;;23.52;19.23;;;16.30;99.90;;;;;;5049277;28;20117;-76
2023/09/16 07:48:07;;;;;;;20.13;17.60;;;16.50;99.90;;;;;;5065517;28;20462;-75
2023/09/16 07:50:39;;;;;;;23.05;18.23;;;16.80;99.90;;;;;;5053764;28;20097;-77
2023/09/16 07:53:05;;;;;;;20.92;18.00;;;17.10;99.90;;;;;;5055362;28;20040;-76
2023/09/16 07:55:38;;;;;;;21.77;16.70;;;17.40;99.90;;;;;;5054130;28;20063;-76
2023/09/16 07:58:04;;;;;;;17.08;14.80;;;17.70;99.90;;;;;;5035274;28;20068;-76
2023/09/16 08:00:30;;;;;;;16.13;14.05;;;18.00;99.60;;;;;;5054574;28;20084;-76
2023/09/16 08:02:56;;;;;;;16.92;13.13;;;18.30;99.10;;;;;;5038955;28;20047;-77
2023/09/16 08:05:22;;;;;;;14.82;12.85;;;18.60;98.60;;;;;;5045755;28;20060;-77
2023/09/16 08:07:48;;;;;;;16.17;12.75;;;18.80;97.90;;;;;;5030995;28;20040;-76
2023/09/16 08:10:13;;;;;;;14.40;12.90;;;19.10;97.20;;;;;;5069886;28;20045;-76
2023/09/16 08:12:39;;;;;;;13.45;10.65;;;19.30;96.50;;;;;;5054395;28;20079;-77
2023/09/16 08:15:09;;;;;;;12.88;11.25;;;19.60;95.90;;;;;;5055761;28;20131;-77
2023/09/16 08:17:37;;;;;;;11.45;9.93;;;19.90;95.10;;;;;;5056001;28;20040;-76
2023/09/16 08:20:04;;;;;;;11.45;10.18;;;20.10;94.30;;;;;;5050649;28;20059;-77
2023/09/16 08:22:30;;;;;;;11.43;9.65;;;20.50;93.50;;;;;;5050880;28;20048;-76
2023/09/16 08:24:56;;;;;;;11.43;9.52;;;20.80;92.30;;;;;;5020717;28;20410;-76
2023/09/16 08:27:22;;;;;;;12.70;10.00;;;21.10;91.20;;;;;;5034072;28;20048;-76
2023/09/16 08:29:49;;;;;;;12.30;10.20;;;21.30;90.00;;;;;;5049939;28;20122;-76
2023/09/16 08:32:15;;;;;;;13.13;11.02;;;21.60;87.20;;;;;;5042006;28;20048;-75
2023/09/16 08:34:42;;;;;;;11.45;10.13;;;21.80;84.00;;;;;;5053261;28;20105;-76
2023/09/16 08:37:11;;;;;;;11.10;8.95;;;22.10;81.50;;;;;;5056711;28;20069;-77
2023/09/16 08:39:38;;;;;;;11.70;9.15;;;22.40;79.00;;;;;;5047088;28;20487;-77
2023/09/16 08:42:17;;;;;;;10.70;9.57;;;22.60;75.60;;;;;;5050806;28;20043;-77
2023/09/16 08:44:44;;;;;;;11.80;9.70;;;22.90;71.00;;;;;;5069409;28;20087;-77
2023/09/16 08:47:15;;;;;;;11.52;9.88;;;23.10;69.40;;;;;;5068436;28;20052;-77
2023/09/16 08:49:49;;;;;;;12.57;9.13;;;23.40;65.80;;;;;;5067986;28;20533;-77
2023/09/16 08:52:17;;;;;;;12.73;9.93;;;23.50;62.50;;;;;;5048510;28;20048;-77
2023/09/16 08:54:46;;;;;;;12.07;8.82;;;23.80;58.70;;;;;;5045583;28;20285;-77
2023/09/16 08:57:13;;;;;;;9.60;8.60;;;23.80;54.60;;;;;;5047358;28;20049;-78
2023/09/16 08:59:40;;;;;;;9.90;8.52;;;24.00;51.80;;;;;;5041048;28;20308;-77
2023/09/16 09:02:08;;;;;;;10.73;9.07;;;24.20;46.80;;;;;;5043821;28;20075;-77
2023/09/16 09:04:35;;;;;;;11.95;8.45;;;24.40;41.90;;;;;;5049199;28;20055;-78
2023/09/16 09:07:02;;;;;;;10.38;8.52;;;24.50;38.30;;;;;;5036631;28;20119;-78
2023/09/16 09:09:29;;;;;;;9.82;8.82;;;24.70;36.00;;;;;;5056412;28;20044;-77
2023/09/16 09:11:57;;;;;;;10.15;6.97;;;24.90;31.70;;;;;;5033735;28;20045;-77
2023/09/16 09:14:23;;;;;;;10.05;7.47;;;25.10;24.10;;;;;;5042522;28;20044;-77
2023/09/16 09:16:51;;;;;;;10.10;6.88;;;25.30;13.30;;;;;;5052395;28;20052;-78
2023/09/16 09:19:20;;;;;;;10.13;7.22;;;25.60;1.00;;;;;;5049564;28;20048;-76
2023/09/16 09:21:47;;;;;;;9.93;6.55;;;25.60;1.00;;;;;;5053268;28;20158;-77
2023/09/16 09:24:13;;;;;;;6.57;5.50;;;25.90;1.00;;;;;;5065036;28;20059;-77
2023/09/16 09:26:39;;;;;;;9.15;6.68;;;25.90;1.00;;;;;;5042271;28;20954;-78
2023/09/16 09:29:09;;;;;;;13.00;7.47;;;26.20;1.00;;;;;;5033295;28;20058;-78
2023/09/16 09:31:36;;;;;;;7.43;4.45;;;26.50;1.00;;;;;;5068824;28;20123;-78
2023/09/16 09:34:02;;;;;;;7.05;4.53;;;26.60;1.00;;;;;;5025275;28;20088;-77
2023/09/16 09:36:32;;;;;;;6.00;4.85;;;26.70;1.00;;;;;;5065981;28;20198;-77
2023/09/16 09:38:59;;;;;;;5.63;5.03;;;26.90;1.00;;;;;;5047038;28;20053;-77
2023/09/16 09:41:25;;;;;;;8.32;5.90;;;27.10;99.90;;;;;;5052605;28;20498;-78
2023/09/16 09:43:55;;;;;;;7.80;4.82;;;27.20;99.90;;;;;;5048009;28;20056;-76
2023/09/16 09:46:21;;;;;;;7.28;4.50;;;27.20;99.90;;;;;;5024889;28;20937;-77
2023/09/16 09:48:47;;;;;;;5.95;4.35;;;27.30;8.90;;;;;;5030986;28;20041;-77
2023/09/16 09:51:17;;;;;;;10.25;4.90;;;27.60;1.00;;;;;;5040143;28;20569;-78
2023/09/16 09:53:45;;;;;;;5.25;3.90;;;27.70;1.00;;;;;;5064863;28;20288;-77
2023/09/16 09:56:18;;;;;;;8.57;5.45;;;27.90;99.90;;;;;;5025339;28;20043;-76
2023/09/16 09:58:45;;;;;;;6.43;4.63;;;28.00;1.00;;;;;;5046466;28;20425;-77
2023/09/16 10:01:11;;;;;;;8.68;4.60;;;28.00;1.00;;;;;;5033200;28;20496;-77
2023/09/16 10:03:37;;;;;;;6.47;4.40;;;28.00;1.00;;;;;;5033095;28;20080;-78
2023/09/16 10:06:20;;;;;;;9.00;4.88;;;28.00;99.90;;;;;;5031983;28;20050;-77
2023/09/16 10:08:47;;;;;;;5.65;3.83;;;28.10;99.90;;;;;;5048099;28;20139;-78
2023/09/16 10:11:13;;;;;;;6.18;4.18;;;28.10;1.00;;;;;;5047127;28;20102;-77
2023/09/16 10:13:39;;;;;;;6.88;4.70;;;28.10;99.90;;;;;;5066024;28;20498;-77
2023/09/16 10:16:06;;;;;;;6.70;4.82;;;28.20;1.00;;;;;;5039916;28;20055;-78
2023/09/16 10:18:32;;;;;;;6.57;3.80;;;28.30;99.90;;;;;;5051134;28;20772;-78
2023/09/16 10:20:58;;;;;;;5.65;4.50;;;28.50;1.00;;;;;;5048079;28;20044;-78
2023/09/16 10:23:28;;;;;;;7.15;4.63;;;28.50;99.90;;;;;;5012278;28;20048;-77
2023/09/16 10:25:53;;;;;;;5.50;4.05;;;28.60;1.00;;;;;;5024142;28;20051;-79
2023/09/16 10:28:20;;;;;;;5.82;4.13;;;28.60;99.90;;;;;;5065716;28;20101;-77
2023/09/16 10:30:48;;;;;;;5.30;4.00;;;28.50;99.90;;;;;;5047305;28;20080;-78
2023/09/16 10:33:16;;;;;;;7.38;4.68;;;28.50;99.90;;;;;;5051649;28;20047;-77
2023/09/16 10:35:42;;;;;;;6.07;4.65;;;28.60;99.90;;;;;;5049946;28;20068;-78
2023/09/16 10:38:10;;;;;;;6.00;5.25;;;28.60;99.90;;;;;;5049813;28;20047;-78
2023/09/16 10:40:37;;;;;;;6.68;4.70;;;28.70;99.90;;;;;;5030866;28;20355;-77
2023/09/16 10:43:04;;;;;;;5.68;4.68;;;28.80;99.90;;;;;;5039250;28;20461;-77
2023/09/16 10:45:31;;;;;;;5.97;4.55;;;28.90;1.00;;;;;;5048815;28;20052;-77
2023/09/16 10:48:01;;;;;;;5.53;4.72;;;28.90;1.00;;;;;;5046428;28;20042;-77
2023/09/16 10:50:30;;;;;;;7.85;4.82;;;29.10;1.00;;;;;;5038179;28;20106;-77
2023/09/16 10:53:10;;;;;;;5.90;4.72;;;29.20;99.90;;;;;;5048230;28;20043;-77
2023/09/16 10:56:00;;;;;;;6.50;4.40;;;29.30;99.90;;;;;;5031238;28;20052;-77
2023/09/16 10:58:50;;;;;;;6.22;3.78;;;29.50;99.90;;;;;;5049714;28;20170;-78
2023/09/16 11:01:39;;;;;;;7.60;4.85;;;29.80;99.90;;;;;;5051309;28;20040;-77
2023/09/16 11:04:16;;;;;;;5.75;3.92;;;30.00;39.80;;;;;;5062757;28;20101;-77
2023/09/16 11:06:43;;;;;;;7.47;4.00;;;29.80;11.80;;;;;;5043958;28;20043;-78
2023/09/16 11:09:10;;;;;;;6.15;4.32;;;29.60;1.00;;;;;;5050246;28;20047;-77
2023/09/16 11:11:37;;;;;;;5.78;4.15;;;29.50;1.00;;;;;;5045585;28;20055;-77
2023/09/16 11:14:04;;;;;;;6.65;4.40;;;29.60;1.00;;;;;;5063842;28;20049;-77
2023/09/16 11:16:45;;;;;;;8.68;4.72;;;29.70;1.00;;;;;;5048260;28;20076;-77
2023/09/16 11:19:15;;;;;;;6.70;4.85;;;29.90;1.00;;;;;;5007609;28;20040;-77
2023/09/16 11:21:43;;;;;;;6.93;4.40;;;30.00;99.90;;;;;;5064111;28;20060;-77
2023/09/16 11:24:10;;;;;;;5.38;4.13;;;30.10;99.90;;;;;;5045631;28;20049;-77
2023/09/16 11:26:37;;;;;;;9.98;4.05;;;30.20;99.90;;;;;;5046055;28;20182;-77
2023/09/16 11:29:16;;;;;;;6.50;4.22;;;30.40;99.90;;;;;;5033001;28;20060;-77
2023/09/16 11:31:42;;;;;;;6.68;4.10;;;30.60;99.90;;;;;;5064384;28;20095;-77
2023/09/16 11:34:11;;;;;;;6.30;3.65;;;31.00;99.90;;;;;;5048370;28;20090;-77
2023/09/16 11:36:45;;;;;;;4.40;3.78;;;31.10;99.90;;;;;;5022726;28;20275;-78
2023/09/16 11:39:10;;;;;;;6.22;3.67;;;31.50;99.90;;;;;;5027944;28;20044;-77
2023/09/16 11:41:37;;;;;;;4.72;3.58;;;31.70;99.90;;;;;;5043127;28;20138;-77
2023/09/16 11:44:04;;;;;;;6.20;3.70;;;31.70;74.60;;;;;;5043723;28;20052;-78
2023/09/16 11:46:31;;;;;;;5.63;3.45;;;31.90;34.50;;;;;;5050009;28;20104;-78
2023/09/16 11:49:03;;;;;;;4.93;3.35;;;32.00;1.00;;;;;;5045634;28;20131;-77
2023/09/16 11:51:30;;;;;;;5.40;2.90;;;31.80;1.00;;;;;;5042269;28;20044;-77
2023/09/16 11:53:58;;;;;;;4.57;3.28;;;31.60;1.00;;;;;;5063452;28;20059;-78
2023/09/16 11:56:28;;;;;;;4.28;2.80;;;31.60;1.00;;;;;;5043474;28;20064;-77
2023/09/16 11:58:57;;;;;;;4.55;3.00;;;31.80;1.00;;;;;;5050932;28;20041;-78
2023/09/16 12:01:31;;;;;;;4.57;3.40;;;31.80;1.00;;;;;;5025257;28;20040;-78
2023/09/16 12:03:58;;;;;;;6.22;3.70;;;31.50;1.00;;;;;;5026559;28;20111;-76
2023/09/16 12:06:28;;;;;;;4.03;2.85;;;30.90;1.00;;;;;;5060059;28;20387;-77
2023/09/16 12:08:56;;;;;;;6.22;2.80;;;30.50;1.00;;;;;;5027491;28;20040;-78
2023/09/16 12:11:23;;;;;;;4.72;2.83;;;30.20;1.00;;;;;;5021654;28;20081;-78
2023/09/16 12:13:49;;;;;;;5.30;3.70;;;30.10;1.00;;;;;;5034374;28;20053;-78
2023/09/16 12:16:15;;;;;;;5.68;3.63;;;30.10;1.00;;;;;;5065124;28;20051;-78
2023/09/16 12:18:45;;;;;;;5.65;3.30;;;30.00;1.00;;;;;;5014628;28;20055;-78
2023/09/16 12:21:12;;;;;;;5.13;2.45;;;29.60;1.00;;;;;;5038496;28;20123;-78
2023/09/16 12:23:41;;;;;;;6.15;2.90;;;29.40;1.00;;;;;;5038902;28;20563;-78
2023/09/16 12:26:11;;;;;;;5.05;2.35;;;29.40;1.00;;;;;;5046987;28;20364;-78
2023/09/16 12:28:37;;;;;;;4.43;2.75;;;29.40;1.00;;;;;;5027794;28;20973;-78
2023/09/16 12:31:03;;;;;;;5.45;2.83;;;29.60;45.80;;;;;;5050090;28;20466;-78
2023/09/16 12:33:45;;;;;;;4.95;2.58;;;29.70;48.00;;;;;;5048095;28;20060;-78